createdAt,value
2019-03-31T00:00:01.042Z,7.17
2019-03-31T00:02:08.871Z,6.05
2019-03-31T00:04:14.906Z,7.05
2019-03-31T00:06:21.004Z,6.37
2019-03-31T00:08:27.062Z,7.47
2019-03-31T00:10:33.037Z,7.80
2019-03-31T00:12:39.344Z,6.37
2019-03-31T00:14:45.695Z,6.37
2019-03-31T00:16:52.591Z,6.85
2019-03-31T00:18:58.776Z,6.65
2019-03-31T00:21:04.831Z,6.47
2019-03-31T00:23:10.842Z,5.75
2019-03-31T00:25:16.826Z,6.90
2019-03-31T00:27:22.918Z,6.42
2019-03-31T00:29:29.198Z,5.60
2019-03-31T00:31:35.170Z,6.40
2019-03-31T00:33:41.153Z,5.62
2019-03-31T00:35:47.190Z,6.80
2019-03-31T00:37:53.906Z,6.67
2019-03-31T00:39:59.943Z,5.55
2019-03-31T00:42:05.926Z,5.30
2019-03-31T00:44:12.022Z,7.10
2019-03-31T00:46:18.484Z,5.80
2019-03-31T00:48:24.464Z,6.47
2019-03-31T00:50:30.455Z,6.00
2019-03-31T00:52:36.423Z,6.30
2019-03-31T00:54:42.412Z,6.50
2019-03-31T00:56:48.491Z,6.40
2019-03-31T00:58:54.559Z,5.92
2019-03-31T01:01:19.716Z,4.95
2019-03-31T01:03:26.057Z,5.80
2019-03-31T01:05:32.427Z,7.20
2019-03-31T01:07:38.436Z,6.47
2019-03-31T01:09:44.723Z,5.37
2019-03-31T01:11:50.795Z,6.15
2019-03-31T01:14:00.126Z,5.90
2019-03-31T01:16:06.740Z,7.05
2019-03-31T01:18:12.993Z,5.92
2019-03-31T01:20:19.526Z,6.37
2019-03-31T01:22:25.512Z,6.67
2019-03-31T01:24:31.587Z,7.15
2019-03-31T01:26:37.683Z,5.08
2019-03-31T01:28:43.738Z,6.65
2019-03-31T01:30:49.821Z,6.05
2019-03-31T01:32:58.342Z,5.72
2019-03-31T01:35:04.383Z,6.47
2019-03-31T01:37:10.561Z,5.03
2019-03-31T01:39:17.234Z,5.55
2019-03-31T01:41:23.287Z,5.85
2019-03-31T01:43:29.263Z,6.53
2019-03-31T01:45:37.376Z,5.53
2019-03-31T01:47:43.422Z,6.00
2019-03-31T01:49:49.483Z,5.90
2019-03-31T01:51:56.642Z,6.05
2019-03-31T01:54:02.657Z,6.45
2019-03-31T01:56:08.690Z,5.83
2019-03-31T01:58:14.742Z,5.95
2019-03-31T02:00:45.605Z,5.65
2019-03-31T02:02:52.677Z,6.87
2019-03-31T02:04:58.820Z,5.95
2019-03-31T02:07:06.794Z,5.87
2019-03-31T02:09:12.778Z,6.92
2019-03-31T02:11:18.847Z,5.95
2019-03-31T02:13:24.874Z,6.60
2019-03-31T02:15:30.911Z,6.20
2019-03-31T02:17:36.987Z,6.05
2019-03-31T02:19:43.098Z,5.85
2019-03-31T02:21:49.055Z,6.17
2019-03-31T02:23:57.161Z,6.05
2019-03-31T02:26:03.144Z,5.17
2019-03-31T02:28:09.698Z,5.95
2019-03-31T02:30:16.014Z,6.05
2019-03-31T02:32:24.160Z,5.20
2019-03-31T02:34:29.800Z,5.20
2019-03-31T02:36:35.883Z,6.47
2019-03-31T02:38:41.876Z,5.85
2019-03-31T02:40:47.924Z,5.22
2019-03-31T02:42:54.427Z,5.70
2019-03-31T02:45:00.744Z,6.33
2019-03-31T02:47:07.159Z,6.50
2019-03-31T02:49:13.519Z,6.65
2019-03-31T02:51:19.620Z,6.25
2019-03-31T02:53:26.062Z,6.30
2019-03-31T02:55:36.878Z,5.62
2019-03-31T02:57:52.928Z,6.03
2019-03-31T03:00:03.949Z,5.97
2019-03-31T03:02:11.256Z,6.00
2019-03-31T03:04:18.908Z,4.42
2019-03-31T03:06:28.267Z,6.35
2019-03-31T03:08:36.731Z,6.97
2019-03-31T03:10:44.323Z,5.78
2019-03-31T03:12:52.496Z,5.95
2019-03-31T03:14:59.750Z,7.12
2019-03-31T03:17:05.867Z,6.00
2019-03-31T03:19:11.839Z,6.47
2019-03-31T03:21:17.931Z,6.83
2019-03-31T03:23:23.913Z,5.92
2019-03-31T03:25:30.015Z,6.45
2019-03-31T03:27:36.123Z,6.20
2019-03-31T03:29:42.125Z,5.60
2019-03-31T03:31:48.111Z,6.20
2019-03-31T03:33:54.249Z,7.12
2019-03-31T03:36:00.268Z,6.72
2019-03-31T03:38:06.299Z,6.05
2019-03-31T03:40:12.316Z,5.80
2019-03-31T03:42:18.280Z,6.08
2019-03-31T03:44:24.328Z,5.85
2019-03-31T03:46:30.347Z,5.78
2019-03-31T03:48:36.374Z,5.95
2019-03-31T03:50:42.368Z,5.87
2019-03-31T03:52:48.446Z,5.30
2019-03-31T03:54:54.439Z,6.20
2019-03-31T03:57:02.205Z,5.75
2019-03-31T03:59:08.343Z,6.05
2019-03-31T04:01:25.496Z,5.37
2019-03-31T04:03:31.596Z,7.28
2019-03-31T04:05:37.642Z,6.95
2019-03-31T04:07:43.685Z,6.40
2019-03-31T04:09:49.750Z,6.12
2019-03-31T04:11:55.784Z,5.53
2019-03-31T04:14:03.204Z,5.85
2019-03-31T04:16:09.400Z,5.90
2019-03-31T04:18:16.208Z,6.62
2019-03-31T04:20:22.296Z,5.80
2019-03-31T04:22:28.279Z,6.30
2019-03-31T04:24:34.382Z,6.20
2019-03-31T04:26:40.373Z,6.28
2019-03-31T04:28:46.365Z,6.25
2019-03-31T04:30:52.441Z,5.80
2019-03-31T04:32:58.536Z,5.95
2019-03-31T04:35:06.536Z,5.22
2019-03-31T04:37:12.599Z,7.72
2019-03-31T04:39:18.676Z,6.12
2019-03-31T04:41:24.851Z,7.00
2019-03-31T04:43:30.855Z,6.58
2019-03-31T04:45:36.859Z,5.60
2019-03-31T04:47:42.835Z,5.72
2019-03-31T04:49:48.871Z,6.15
2019-03-31T04:51:54.903Z,6.85
2019-03-31T04:54:00.933Z,5.25
2019-03-31T04:56:06.890Z,5.67
2019-03-31T04:58:12.956Z,6.08
2019-03-31T05:00:19.102Z,6.50
2019-03-31T05:02:27.125Z,5.58
2019-03-31T05:04:32.779Z,5.10
2019-03-31T05:06:38.806Z,6.25
2019-03-31T05:08:47.842Z,5.97
2019-03-31T05:10:54.673Z,5.22
2019-03-31T05:13:01.111Z,5.92
2019-03-31T05:15:08.731Z,5.28
2019-03-31T05:17:14.828Z,6.10
2019-03-31T05:19:20.822Z,6.50
2019-03-31T05:21:26.786Z,6.47
2019-03-31T05:23:32.768Z,7.10
2019-03-31T05:25:38.755Z,6.20
2019-03-31T05:27:44.746Z,5.42
2019-03-31T05:29:51.075Z,5.65
2019-03-31T05:31:57.157Z,7.65
2019-03-31T05:34:03.183Z,7.40
2019-03-31T05:36:09.174Z,7.20
2019-03-31T05:38:15.451Z,4.97
2019-03-31T05:40:24.447Z,5.78
2019-03-31T05:42:30.423Z,5.85
2019-03-31T05:44:36.427Z,5.28
2019-03-31T05:46:42.449Z,5.97
2019-03-31T05:48:48.498Z,6.60
2019-03-31T05:50:54.483Z,5.62
2019-03-31T05:53:00.782Z,6.83
2019-03-31T05:55:09.586Z,5.75
2019-03-31T05:57:15.719Z,5.70
2019-03-31T05:59:23.210Z,6.42
2019-03-31T06:01:29.306Z,5.58
2019-03-31T06:03:36.985Z,7.33
2019-03-31T06:05:42.994Z,5.10
2019-03-31T06:07:50.926Z,5.80
2019-03-31T06:09:56.967Z,6.80
2019-03-31T06:12:03.024Z,5.70
2019-03-31T06:14:09.152Z,6.65
2019-03-31T06:16:15.151Z,6.15
2019-03-31T06:18:21.193Z,6.05
2019-03-31T06:20:30.232Z,6.87
2019-03-31T06:22:36.362Z,7.30
2019-03-31T06:24:45.515Z,7.50
2019-03-31T06:26:51.570Z,7.22
2019-03-31T06:28:57.607Z,7.28
2019-03-31T06:31:03.609Z,5.58
2019-03-31T06:33:09.683Z,7.20
2019-03-31T06:35:15.651Z,5.90
2019-03-31T06:37:21.639Z,6.08
2019-03-31T06:39:27.715Z,6.85
2019-03-31T06:41:33.792Z,7.30
2019-03-31T06:43:42.940Z,6.37
2019-03-31T06:45:48.750Z,6.30
2019-03-31T06:47:54.463Z,6.07
2019-03-31T06:50:00.337Z,5.93
2019-03-31T06:52:06.078Z,7.33
2019-03-31T06:54:11.794Z,5.83
2019-03-31T06:56:17.544Z,6.90
2019-03-31T06:58:23.336Z,6.40
2019-03-31T07:00:29.215Z,5.47
2019-03-31T07:02:37.646Z,5.30
2019-03-31T07:04:43.367Z,4.97
2019-03-31T07:06:54.607Z,5.93
2019-03-31T07:09:00.572Z,6.17
2019-03-31T07:11:08.077Z,5.90
2019-03-31T07:13:13.878Z,5.40
2019-03-31T07:15:19.838Z,5.60
2019-03-31T07:17:25.695Z,7.33
2019-03-31T07:19:31.522Z,6.10
2019-03-31T07:21:40.318Z,6.77
2019-03-31T07:23:46.046Z,6.00
2019-03-31T07:25:51.843Z,7.30
2019-03-31T07:27:57.522Z,7.00
2019-03-31T07:30:07.018Z,6.10
2019-03-31T07:32:11.090Z,7.07
2019-03-31T07:34:16.858Z,8.10
2019-03-31T07:36:22.590Z,7.53
2019-03-31T07:38:38.313Z,6.87
2019-03-31T07:40:35.730Z,6.23
2019-03-31T07:42:42.803Z,6.83
2019-03-31T07:44:48.618Z,6.77
2019-03-31T07:46:54.352Z,7.30
2019-03-31T07:49:00.258Z,7.30
2019-03-31T07:51:06.544Z,8.30
2019-03-31T07:53:13.080Z,6.87
2019-03-31T07:55:20.988Z,8.80
2019-03-31T07:57:27.068Z,10.10
2019-03-31T07:59:32.822Z,10.00
2019-03-31T08:01:38.578Z,11.90
2019-03-31T08:03:44.415Z,11.70
2019-03-31T08:05:50.219Z,11.30
2019-03-31T08:07:56.329Z,12.20
2019-03-31T08:10:02.082Z,12.13
2019-03-31T08:12:07.828Z,12.90
2019-03-31T08:14:13.646Z,12.53
2019-03-31T08:16:19.426Z,12.23
2019-03-31T08:18:25.142Z,11.40
2019-03-31T08:20:30.858Z,11.77
2019-03-31T08:22:36.573Z,12.83
2019-03-31T08:24:45.362Z,10.53
2019-03-31T08:26:53.847Z,13.07
2019-03-31T08:28:59.550Z,12.53
2019-03-31T08:31:05.303Z,13.40
2019-03-31T08:33:11.033Z,12.97
2019-03-31T08:35:17.001Z,12.40
2019-03-31T08:37:22.778Z,10.60
2019-03-31T08:39:28.886Z,11.90
2019-03-31T08:41:34.666Z,13.00
2019-03-31T08:43:40.446Z,13.07
2019-03-31T08:45:46.259Z,13.03
2019-03-31T08:47:52.022Z,13.07
2019-03-31T08:49:57.774Z,13.40
2019-03-31T08:52:03.748Z,12.37
2019-03-31T08:54:09.578Z,12.90
2019-03-31T08:56:15.302Z,12.70
2019-03-31T08:58:21.013Z,13.40
2019-03-31T09:00:40.469Z,15.50
2019-03-31T09:02:46.314Z,12.67
2019-03-31T09:04:52.015Z,13.77
2019-03-31T09:06:58.778Z,13.50
2019-03-31T09:09:08.355Z,13.03
2019-03-31T09:11:14.156Z,12.93
2019-03-31T09:13:19.860Z,11.90
2019-03-31T09:15:25.553Z,12.47
2019-03-31T09:17:31.269Z,12.93
2019-03-31T09:19:37.074Z,13.43
2019-03-31T09:21:42.872Z,13.23
2019-03-31T09:23:48.627Z,14.20
2019-03-31T09:25:54.366Z,12.60
2019-03-31T09:28:00.138Z,12.90
2019-03-31T09:30:08.076Z,12.20
2019-03-31T09:32:13.885Z,13.70
2019-03-31T09:34:19.729Z,13.00
2019-03-31T09:36:25.530Z,11.90
2019-03-31T09:38:31.276Z,10.80
2019-03-31T09:40:37.128Z,12.90
2019-03-31T09:42:42.894Z,12.77
2019-03-31T09:44:48.646Z,13.90
2019-03-31T09:46:54.453Z,11.60
2019-03-31T09:49:00.233Z,13.10
2019-03-31T09:51:05.998Z,13.40
2019-03-31T09:53:11.815Z,13.33
2019-03-31T09:55:17.558Z,11.77
2019-03-31T09:57:23.343Z,11.60
2019-03-31T09:59:29.149Z,13.27
2019-03-31T10:01:34.906Z,14.00
2019-03-31T10:03:40.653Z,11.87
2019-03-31T10:05:48.159Z,12.83
2019-03-31T10:07:53.975Z,13.10
2019-03-31T10:10:00.224Z,11.70
2019-03-31T10:12:06.209Z,14.87
2019-03-31T10:14:11.939Z,13.07
2019-03-31T10:16:17.683Z,12.20
2019-03-31T10:18:23.502Z,12.00
2019-03-31T10:20:31.475Z,11.60
2019-03-31T10:22:36.678Z,12.37
2019-03-31T10:24:42.487Z,12.50
2019-03-31T10:26:48.315Z,12.70
2019-03-31T10:28:54.035Z,14.23
2019-03-31T10:30:59.823Z,12.60
2019-03-31T10:33:05.942Z,12.43
2019-03-31T10:35:11.649Z,11.80
2019-03-31T10:37:17.611Z,13.13
2019-03-31T10:39:24.186Z,12.67
2019-03-31T10:41:31.103Z,12.67
2019-03-31T10:43:36.922Z,11.80
2019-03-31T10:45:42.646Z,12.50
2019-03-31T10:47:48.377Z,12.30
2019-03-31T10:49:54.163Z,12.93
2019-03-31T10:51:59.914Z,11.00
2019-03-31T10:54:05.623Z,12.50
2019-03-31T10:56:11.366Z,12.03
2019-03-31T10:58:17.175Z,12.60
2019-03-31T11:00:33.446Z,12.70
2019-03-31T11:02:40.338Z,12.67
2019-03-31T11:04:46.122Z,11.43
2019-03-31T11:06:59.041Z,11.50
2019-03-31T11:08:59.306Z,12.63
2019-03-31T11:11:05.054Z,11.83
2019-03-31T11:13:10.763Z,10.60
2019-03-31T11:15:16.526Z,11.43
2019-03-31T11:17:22.277Z,11.93
2019-03-31T11:19:28.256Z,13.00
2019-03-31T11:21:41.334Z,11.60
2019-03-31T11:23:47.227Z,12.47
2019-03-31T11:25:53.015Z,11.83
2019-03-31T11:27:58.915Z,12.37
2019-03-31T11:30:05.442Z,11.80
2019-03-31T11:32:11.216Z,12.63
2019-03-31T11:34:19.686Z,12.30
2019-03-31T11:36:29.599Z,12.30
2019-03-31T11:38:35.334Z,12.77
2019-03-31T11:40:41.087Z,12.10
2019-03-31T11:42:46.836Z,14.17
2019-03-31T11:44:52.560Z,12.53
2019-03-31T11:46:58.262Z,12.07
2019-03-31T11:49:04.028Z,14.30
2019-03-31T11:51:10.396Z,12.60
2019-03-31T11:53:19.222Z,13.07
2019-03-31T11:55:25.470Z,11.10
2019-03-31T11:57:33.015Z,12.00
2019-03-31T11:59:38.727Z,10.07
2019-03-31T12:01:44.446Z,10.00
2019-03-31T12:03:53.433Z,11.17
2019-03-31T12:05:59.860Z,11.00
2019-03-31T12:08:05.683Z,10.73
2019-03-31T12:10:11.393Z,10.43
2019-03-31T12:12:17.113Z,12.23
2019-03-31T12:14:22.823Z,12.10
2019-03-31T12:16:32.649Z,10.80
2019-03-31T12:18:40.648Z,10.57
2019-03-31T12:20:46.494Z,10.07
2019-03-31T12:22:52.491Z,11.73
2019-03-31T12:24:58.349Z,10.67
2019-03-31T12:27:04.143Z,10.80
2019-03-31T12:29:09.930Z,10.07
2019-03-31T12:31:16.105Z,11.57
2019-03-31T12:33:21.900Z,10.70
2019-03-31T12:35:27.723Z,8.53
2019-03-31T12:37:42.142Z,9.20
2019-03-31T12:39:42.867Z,10.43
2019-03-31T12:41:48.630Z,11.20
2019-03-31T12:43:54.367Z,10.47
2019-03-31T12:46:00.110Z,10.73
2019-03-31T12:48:06.254Z,9.57
2019-03-31T12:50:11.962Z,9.90
2019-03-31T12:52:17.711Z,10.50
2019-03-31T12:54:23.406Z,9.57
2019-03-31T12:56:29.145Z,9.03
2019-03-31T12:58:34.862Z,10.73
2019-03-31T13:00:40.583Z,10.50
2019-03-31T13:02:49.083Z,8.90
2019-03-31T13:04:54.895Z,8.80
2019-03-31T13:07:00.698Z,9.23
2019-03-31T13:09:08.584Z,9.67
2019-03-31T13:11:14.401Z,7.00
2019-03-31T13:13:20.214Z,8.37
2019-03-31T13:15:25.910Z,8.63
2019-03-31T13:17:31.675Z,9.17
2019-03-31T13:19:37.459Z,8.30
2019-03-31T13:21:43.189Z,9.47
2019-03-31T13:23:49.062Z,10.13
2019-03-31T13:25:54.806Z,9.30
2019-03-31T13:28:00.511Z,8.00
2019-03-31T13:30:06.774Z,8.17
2019-03-31T13:32:12.478Z,7.93
2019-03-31T13:34:18.261Z,8.07
2019-03-31T13:36:24.025Z,7.93
2019-03-31T13:38:29.818Z,7.90
2019-03-31T13:40:35.916Z,7.57
2019-03-31T13:42:41.671Z,7.70
2019-03-31T13:44:47.375Z,7.17
2019-03-31T13:46:53.183Z,8.00
2019-03-31T13:48:58.978Z,9.07
2019-03-31T13:51:04.806Z,8.53
2019-03-31T13:53:10.579Z,7.90
2019-03-31T13:55:16.399Z,8.00
2019-03-31T13:57:22.870Z,7.77
2019-03-31T13:59:29.126Z,7.90
2019-03-31T14:01:37.794Z,8.73
2019-03-31T14:03:43.530Z,8.70
2019-03-31T14:05:49.243Z,7.80
2019-03-31T14:07:54.923Z,6.97
2019-03-31T14:10:01.025Z,7.60
2019-03-31T14:12:06.947Z,7.80
2019-03-31T14:14:12.688Z,7.23
2019-03-31T14:16:19.968Z,7.97
2019-03-31T14:18:25.831Z,8.17
2019-03-31T14:20:31.602Z,7.43
2019-03-31T14:22:37.363Z,8.53
2019-03-31T14:24:43.162Z,7.77
2019-03-31T14:26:48.946Z,7.77
2019-03-31T14:28:54.763Z,7.90
2019-03-31T14:31:00.593Z,8.07
2019-03-31T14:33:06.275Z,6.40
2019-03-31T14:35:12.345Z,8.30
2019-03-31T14:37:18.116Z,8.00
2019-03-31T14:39:23.914Z,7.07
2019-03-31T14:41:29.625Z,8.60
2019-03-31T14:43:35.450Z,7.60
2019-03-31T14:45:41.267Z,7.87
2019-03-31T14:47:46.991Z,8.67
2019-03-31T14:49:53.345Z,7.63
2019-03-31T14:52:01.265Z,6.60
2019-03-31T14:54:10.835Z,7.63
2019-03-31T14:56:16.750Z,7.00
2019-03-31T14:58:22.547Z,5.83
2019-03-31T15:00:28.290Z,6.97
2019-03-31T15:02:34.155Z,6.97
2019-03-31T15:04:39.854Z,6.60
2019-03-31T15:06:45.607Z,7.70
2019-03-31T15:08:54.471Z,7.20
2019-03-31T15:10:58.815Z,7.70
2019-03-31T15:13:04.972Z,7.27
2019-03-31T15:15:10.887Z,7.57
2019-03-31T15:17:16.582Z,7.13
2019-03-31T15:19:22.301Z,7.57
2019-03-31T15:21:28.151Z,7.40
2019-03-31T15:23:33.973Z,7.13
2019-03-31T15:25:43.054Z,7.70
2019-03-31T15:27:47.391Z,7.17
2019-03-31T15:29:53.105Z,6.50
2019-03-31T15:31:58.903Z,7.43
2019-03-31T15:34:04.682Z,6.93
2019-03-31T15:36:10.489Z,6.87
2019-03-31T15:38:19.335Z,7.17
2019-03-31T15:40:25.058Z,7.73
2019-03-31T15:42:30.790Z,6.60
2019-03-31T15:44:36.580Z,7.00
2019-03-31T15:46:42.306Z,6.30
2019-03-31T15:48:48.043Z,7.17
2019-03-31T15:50:53.715Z,7.10
2019-03-31T15:52:59.426Z,6.70
2019-03-31T15:55:05.436Z,6.27
2019-03-31T15:57:11.213Z,7.00
2019-03-31T15:59:16.950Z,7.70
2019-03-31T16:01:22.804Z,7.73
2019-03-31T16:03:28.550Z,7.30
2019-03-31T16:05:34.255Z,7.17
2019-03-31T16:07:39.965Z,7.10
2019-03-31T16:09:45.187Z,6.80
2019-03-31T16:11:53.957Z,6.50
2019-03-31T16:13:58.252Z,7.20
2019-03-31T16:16:03.499Z,6.67
2019-03-31T16:18:08.650Z,5.60
2019-03-31T16:20:14.967Z,6.60
2019-03-31T16:22:20.206Z,6.17
2019-03-31T16:24:37.671Z,5.73
2019-03-31T16:26:42.910Z,6.60
2019-03-31T16:28:48.545Z,6.40
2019-03-31T16:30:55.479Z,5.70
2019-03-31T16:33:00.708Z,7.47
2019-03-31T16:35:06.114Z,8.07
2019-03-31T16:37:11.583Z,7.92
2019-03-31T16:39:17.108Z,7.65
2019-03-31T16:41:22.629Z,7.05
2019-03-31T16:43:28.267Z,6.00
2019-03-31T16:45:33.571Z,7.87
2019-03-31T16:47:39.482Z,6.40
2019-03-31T16:49:45.054Z,6.95
2019-03-31T16:51:50.555Z,5.90
2019-03-31T16:53:57.647Z,6.42
2019-03-31T16:56:03.247Z,6.22
2019-03-31T16:58:09.652Z,6.50
2019-03-31T17:00:15.654Z,6.33
2019-03-31T17:02:21.141Z,7.78
2019-03-31T17:04:26.677Z,5.78
2019-03-31T17:06:32.427Z,7.30
2019-03-31T17:08:37.905Z,7.90
2019-03-31T17:10:43.422Z,6.47
2019-03-31T17:12:48.881Z,6.67
2019-03-31T17:14:55.817Z,6.65
2019-03-31T17:17:01.331Z,7.08
2019-03-31T17:19:06.848Z,5.83
2019-03-31T17:21:12.300Z,6.62
2019-03-31T17:23:17.913Z,6.80
2019-03-31T17:25:23.548Z,6.92
2019-03-31T17:27:29.053Z,7.65
2019-03-31T17:29:34.815Z,12.45
2019-03-31T17:31:40.320Z,18.75
2019-03-31T17:33:45.784Z,12.23
2019-03-31T17:35:51.271Z,9.43
2019-03-31T17:37:56.750Z,13.75
2019-03-31T17:40:06.360Z,9.25
2019-03-31T17:42:09.757Z,7.80
2019-03-31T17:44:15.250Z,7.70
2019-03-31T17:46:21.708Z,7.25
2019-03-31T17:48:29.571Z,6.70
2019-03-31T17:50:39.021Z,6.17
2019-03-31T17:52:44.605Z,5.45
2019-03-31T17:54:50.315Z,5.00
2019-03-31T17:56:59.435Z,5.40
2019-03-31T17:59:08.742Z,5.58
2019-03-31T18:01:13.007Z,5.33
2019-03-31T18:03:18.511Z,6.30
2019-03-31T18:05:40.491Z,5.90
2019-03-31T18:07:47.979Z,6.17
2019-03-31T18:09:53.380Z,5.12
2019-03-31T18:11:58.866Z,6.12
2019-03-31T18:14:06.816Z,5.10
2019-03-31T18:16:11.852Z,6.40
2019-03-31T18:18:17.337Z,5.42
2019-03-31T18:20:22.781Z,5.90
2019-03-31T18:22:28.210Z,6.03
2019-03-31T18:24:33.687Z,6.28
2019-03-31T18:26:39.160Z,5.95
2019-03-31T18:28:44.567Z,5.47
2019-03-31T18:30:50.119Z,6.22
2019-03-31T18:32:55.539Z,4.85
2019-03-31T18:35:00.953Z,6.50
2019-03-31T18:37:06.370Z,5.62
2019-03-31T18:39:11.811Z,7.00
2019-03-31T18:41:17.252Z,8.43
2019-03-31T18:43:23.210Z,6.15
2019-03-31T18:45:28.631Z,6.25
2019-03-31T18:47:34.054Z,6.70
2019-03-31T18:49:39.561Z,7.35
2019-03-31T18:51:46.074Z,7.17
2019-03-31T18:54:13.222Z,7.67
2019-03-31T18:56:46.959Z,6.78
2019-03-31T18:59:29.459Z,7.10
2019-03-31T19:01:55.510Z,7.20
2019-03-31T19:04:19.862Z,8.60
2019-03-31T19:06:50.262Z,7.10
2019-03-31T19:09:32.994Z,7.17
2019-03-31T19:11:47.208Z,6.87
2019-03-31T19:14:17.930Z,6.53
2019-03-31T19:16:51.774Z,7.33
2019-03-31T19:19:17.870Z,7.70
2019-03-31T19:21:45.375Z,8.23
2019-03-31T19:24:00.981Z,8.40
2019-03-31T19:26:18.234Z,7.80
2019-03-31T19:28:54.859Z,8.50
2019-03-31T19:31:24.202Z,7.53
2019-03-31T19:34:03.764Z,7.70
2019-03-31T19:36:19.408Z,8.85
2019-03-31T19:38:40.718Z,8.35
2019-03-31T19:41:04.038Z,8.48
2019-03-31T19:43:19.062Z,7.70
2019-03-31T19:45:51.561Z,8.43
2019-03-31T19:48:16.249Z,8.43
2019-03-31T19:50:47.536Z,8.18
2019-03-31T19:53:15.555Z,9.28
2019-03-31T19:55:41.254Z,8.43
2019-03-31T19:58:08.151Z,10.40
2019-03-31T20:00:32.100Z,11.57
2019-03-31T20:02:49.015Z,12.15
2019-03-31T20:05:13.682Z,12.93
2019-03-31T20:07:35.354Z,11.85
2019-03-31T20:10:05.912Z,11.60
2019-03-31T20:12:30.371Z,13.65
2019-03-31T20:15:00.885Z,14.75
2019-03-31T20:17:23.829Z,14.83
2019-03-31T20:19:47.154Z,15.35
2019-03-31T20:22:14.582Z,13.58
2019-03-31T20:24:31.806Z,13.22
2019-03-31T20:26:49.727Z,11.85
2019-03-31T20:29:16.959Z,11.53
2019-03-31T20:31:53.422Z,9.35
2019-03-31T20:34:07.771Z,9.08
2019-03-31T20:36:35.837Z,9.58
2019-03-31T20:39:20.259Z,8.65
2019-03-31T20:41:59.971Z,7.87
2019-03-31T20:44:05.541Z,8.48
2019-03-31T20:46:15.003Z,8.88
2019-03-31T20:48:20.963Z,7.60
2019-03-31T20:50:26.407Z,9.45
2019-03-31T20:52:34.607Z,9.03
2019-03-31T20:54:40.084Z,7.78
2019-03-31T20:56:45.659Z,8.48
2019-03-31T20:58:51.166Z,8.70
2019-03-31T21:00:56.666Z,8.40
2019-03-31T21:03:02.231Z,8.53
2019-03-31T21:05:08.043Z,8.28
2019-03-31T21:07:13.540Z,8.88
2019-03-31T21:09:19.675Z,7.80
2019-03-31T21:11:25.285Z,8.30
2019-03-31T21:13:31.858Z,8.73
2019-03-31T21:15:37.559Z,8.10
2019-03-31T21:17:44.199Z,9.65
2019-03-31T21:19:49.737Z,8.58
2019-03-31T21:21:55.146Z,8.70
2019-03-31T21:24:00.587Z,9.83
2019-03-31T21:26:06.314Z,8.03
2019-03-31T21:28:11.762Z,8.80
2019-03-31T21:30:18.670Z,7.35
2019-03-31T21:32:25.790Z,7.85
2019-03-31T21:34:31.230Z,7.17
2019-03-31T21:36:36.683Z,7.60
2019-03-31T21:38:42.139Z,7.70
2019-03-31T21:40:47.603Z,7.90
2019-03-31T21:42:53.045Z,8.33
2019-03-31T21:44:58.540Z,7.53
2019-03-31T21:47:03.982Z,7.72
2019-03-31T21:49:09.423Z,6.70
2019-03-31T21:51:14.858Z,8.00
2019-03-31T21:53:20.400Z,8.70
2019-03-31T21:55:28.255Z,7.05
2019-03-31T21:57:34.152Z,8.33
2019-03-31T21:59:39.610Z,7.70
2019-03-31T22:01:45.078Z,9.40
2019-03-31T22:03:50.620Z,9.45
2019-03-31T22:05:56.071Z,8.70
2019-03-31T22:08:03.957Z,9.10
2019-03-31T22:10:08.995Z,9.50
2019-03-31T22:12:14.506Z,9.00
2019-03-31T22:14:20.461Z,8.68
2019-03-31T22:16:30.806Z,8.53
2019-03-31T22:18:36.391Z,8.80
2019-03-31T22:20:41.903Z,8.30
2019-03-31T22:22:47.346Z,8.30
2019-03-31T22:24:52.856Z,8.95
2019-03-31T22:26:58.301Z,9.00
2019-03-31T22:29:03.911Z,9.53
2019-03-31T22:31:09.783Z,8.98
2019-03-31T22:33:17.988Z,7.53
2019-03-31T22:35:23.537Z,8.73
2019-03-31T22:37:29.037Z,9.85
2019-03-31T22:39:34.533Z,8.90
2019-03-31T22:41:40.006Z,8.58
2019-03-31T22:43:45.519Z,8.75
2019-03-31T22:45:51.018Z,8.50
2019-03-31T22:47:56.530Z,8.23
2019-03-31T22:50:02.021Z,9.25
2019-03-31T22:52:07.576Z,7.53
2019-03-31T22:54:13.091Z,8.28
2019-03-31T22:56:18.519Z,8.43
2019-03-31T22:58:23.959Z,7.70
2019-03-31T23:00:30.327Z,8.08
2019-03-31T23:02:35.752Z,8.45
2019-03-31T23:04:41.236Z,8.98
2019-03-31T23:06:46.672Z,7.60
2019-03-31T23:08:52.121Z,7.42
2019-03-31T23:10:57.610Z,7.90
2019-03-31T23:13:03.115Z,7.00
2019-03-31T23:15:08.739Z,8.78
2019-03-31T23:17:14.155Z,8.93
2019-03-31T23:19:23.187Z,7.28
2019-03-31T23:21:31.502Z,8.15
2019-03-31T23:23:37.956Z,8.38
2019-03-31T23:25:45.799Z,7.92
2019-03-31T23:27:51.263Z,7.10
2019-03-31T23:29:56.821Z,8.23
2019-03-31T23:32:02.326Z,8.13
2019-03-31T23:34:07.774Z,7.62
2019-03-31T23:36:13.234Z,8.33
2019-03-31T23:38:18.739Z,7.20
2019-03-31T23:40:24.256Z,8.43
2019-03-31T23:42:31.407Z,8.65
2019-03-31T23:44:36.947Z,8.45
2019-03-31T23:46:42.465Z,8.18
2019-03-31T23:48:47.887Z,7.65
2019-03-31T23:50:53.346Z,8.33
2019-03-31T23:52:58.866Z,8.65
2019-03-31T23:55:04.622Z,7.87
2019-03-31T23:57:10.094Z,7.28
2019-03-31T23:59:15.505Z,7.97
